EZY26ZK EGAA-LERS
Flight info
| Callsign | EZY26ZK |
|---|---|
| Flight time | N/A |
| Altitude | 37000 |
| Route | BELZU DCT DEGOS DCT TUGSI DCT BUNED DCT BANBA DCT PAVLO DCT DOLUR DCT IDRIK DCT NOVAN DCT NENEM DCT BADRU P152 PPN/N0434F380 P152 RONKO M601 POSSY |
| Aircraft | A320/M-SDE2E3FGHIJ1RWXYZ/LB1 |
Departure
| Time | N/A |
|---|---|
| Airport | Belfast International Airport (EGAA) |
Arrival
| Time | 2026-04-28 13:39 |
|---|---|
| Airport | Reus Airport (LERS) |
| Time | Latitude | Longitude | Altitude | Speed | Heading |
|---|---|---|---|---|---|
| 2026-04-28 13:24 | 41.81996 | 0.99118 | 14774 ft | 324 kts | 111° |
| 2026-04-28 13:25 | 41.81248 | 1.01960 | 14441 ft | 323 kts | 112° |
| 2026-04-28 13:25 | 41.80500 | 1.04787 | 14101 ft | 321 kts | 111° |
| 2026-04-28 13:25 | 41.79754 | 1.07605 | 13751 ft | 320 kts | 111° |
| 2026-04-28 13:25 | 41.78970 | 1.10376 | 13382 ft | 316 kts | 118° |
| 2026-04-28 13:26 | 41.77791 | 1.12825 | 13006 ft | 311 kts | 134° |
| 2026-04-28 13:26 | 41.76219 | 1.14754 | 12736 ft | 303 kts | 147° |
| 2026-04-28 13:26 | 41.74517 | 1.16382 | 12437 ft | 299 kts | 147° |
| 2026-04-28 13:26 | 41.72833 | 1.17998 | 12121 ft | 296 kts | 147° |
| 2026-04-28 13:27 | 41.71168 | 1.19598 | 11809 ft | 293 kts | 147° |
| 2026-04-28 13:27 | 41.69523 | 1.21180 | 11502 ft | 290 kts | 147° |
| 2026-04-28 13:27 | 41.67892 | 1.22745 | 11208 ft | 288 kts | 146° |
| 2026-04-28 13:27 | 41.66268 | 1.24303 | 10903 ft | 286 kts | 146° |
| 2026-04-28 13:28 | 41.64661 | 1.25842 | 10598 ft | 283 kts | 146° |
| 2026-04-28 13:28 | 41.63056 | 1.27376 | 10315 ft | 284 kts | 146° |
| 2026-04-28 13:28 | 41.61455 | 1.28905 | 10017 ft | 282 kts | 146° |
| 2026-04-28 13:28 | 41.59873 | 1.30416 | 9768 ft | 277 kts | 146° |
| 2026-04-28 13:29 | 41.58309 | 1.31910 | 9534 ft | 276 kts | 146° |
| 2026-04-28 13:29 | 41.56751 | 1.33396 | 9301 ft | 276 kts | 146° |
| 2026-04-28 13:29 | 41.55181 | 1.34893 | 9068 ft | 278 kts | 146° |
| 2026-04-28 13:29 | 41.53617 | 1.36385 | 8832 ft | 275 kts | 146° |
| 2026-04-28 13:30 | 41.52063 | 1.37868 | 8609 ft | 274 kts | 146° |
| 2026-04-28 13:30 | 41.50543 | 1.39320 | 8393 ft | 270 kts | 146° |
| 2026-04-28 13:30 | 41.48993 | 1.40797 | 8162 ft | 272 kts | 146° |
| 2026-04-28 13:30 | 41.47468 | 1.42247 | 7935 ft | 273 kts | 146° |
| 2026-04-28 13:31 | 41.44409 | 1.45158 | 7452 ft | 266 kts | 147° |
| 2026-04-28 13:31 | 41.42903 | 1.46587 | 7257 ft | 266 kts | 146° |
| 2026-04-28 13:31 | 41.41384 | 1.48024 | 7032 ft | 269 kts | 146° |
| 2026-04-28 13:32 | 41.39856 | 1.49467 | 6813 ft | 270 kts | 146° |
| 2026-04-28 13:32 | 41.38337 | 1.50905 | 6587 ft | 266 kts | 146° |
| 2026-04-28 13:32 | 41.36831 | 1.52329 | 6356 ft | 266 kts | 147° |
| 2026-04-28 13:32 | 41.35185 | 1.53379 | 6121 ft | 260 kts | 166° |
| 2026-04-28 13:33 | 41.33399 | 1.53641 | 5907 ft | 260 kts | 184° |
| 2026-04-28 13:33 | 41.31635 | 1.53091 | 5625 ft | 260 kts | 202° |
| 2026-04-28 13:33 | 41.30028 | 1.52060 | 5359 ft | 254 kts | 204° |
| 2026-04-28 13:33 | 41.28450 | 1.51047 | 5103 ft | 250 kts | 204° |
| 2026-04-28 13:34 | 41.26898 | 1.50059 | 4851 ft | 244 kts | 204° |
| 2026-04-28 13:34 | 41.25381 | 1.49091 | 4588 ft | 239 kts | 205° |
| 2026-04-28 13:34 | 41.24052 | 1.47793 | 4340 ft | 239 kts | 226° |
| 2026-04-28 13:34 | 41.23186 | 1.45941 | 4127 ft | 234 kts | 247° |
| 2026-04-28 13:35 | 41.22619 | 1.43960 | 4018 ft | 227 kts | 246° |
| 2026-04-28 13:35 | 41.22062 | 1.42026 | 3888 ft | 224 kts | 247° |
| 2026-04-28 13:35 | 41.21504 | 1.40092 | 3625 ft | 227 kts | 247° |
| 2026-04-28 13:35 | 41.20931 | 1.38109 | 3351 ft | 232 kts | 247° |
| 2026-04-28 13:36 | 41.20353 | 1.36103 | 3031 ft | 234 kts | 247° |
| 2026-04-28 13:36 | 41.19781 | 1.34118 | 2724 ft | 223 kts | 246° |
| 2026-04-28 13:36 | 41.19238 | 1.32236 | 2428 ft | 214 kts | 246° |
| 2026-04-28 13:36 | 41.18718 | 1.30436 | 2186 ft | 202 kts | 246° |
| 2026-04-28 13:37 | 41.18227 | 1.28739 | 1890 ft | 192 kts | 248° |
| 2026-04-28 13:37 | 41.17761 | 1.27130 | 1640 ft | 181 kts | 246° |
| 2026-04-28 13:37 | 41.17321 | 1.25611 | 1421 ft | 171 kts | 247° |
| 2026-04-28 13:37 | 41.16911 | 1.24198 | 1202 ft | 155 kts | 246° |
| 2026-04-28 13:38 | 41.16531 | 1.22888 | 997 ft | 149 kts | 248° |
| 2026-04-28 13:38 | 41.16168 | 1.21638 | 806 ft | 144 kts | 246° |
| 2026-04-28 13:38 | 41.15811 | 1.20409 | 620 ft | 141 kts | 246° |
| 2026-04-28 13:38 | 41.15576 | 1.19604 | 499 ft | 142 kts | 245° |
| 2026-04-28 13:39 | 41.15227 | 1.18385 | 303 ft | 141 kts | 245° |
| 2026-04-28 13:39 | 41.14890 | 1.17238 | 240 ft | 116 kts | 250° |
| 2026-04-28 13:39 | 41.14660 | 1.16455 | 240 ft | 66 kts | 249° |
| 2026-04-28 13:39 | 41.14540 | 1.16048 | 238 ft | 25 kts | 248° |
| 2026-04-28 13:40 | 41.14561 | 1.15893 | 238 ft | 17 kts | 331° |
| 2026-04-28 13:40 | 41.14629 | 1.15855 | 239 ft | 9 kts | 338° |
| 2026-04-28 13:40 | 41.14685 | 1.15826 | 239 ft | 8 kts | 339° |
| 2026-04-28 13:40 | 41.14727 | 1.15805 | 239 ft | 4 kts | 338° |
| 2026-04-28 13:41 | 41.14734 | 1.15801 | 239 ft | 0 kts | 338° |